createdAt,value
2023-05-23T00:00:17.834Z,10.00
2023-05-23T00:03:05.406Z,9.90
2023-05-23T00:05:36.221Z,9.90
2023-05-23T00:08:04.428Z,9.90
2023-05-23T00:10:32.636Z,10.00
2023-05-23T00:12:59.785Z,10.00
2023-05-23T00:15:27.507Z,10.00
2023-05-23T00:17:55.946Z,10.00
2023-05-23T00:20:25.544Z,10.00
2023-05-23T00:22:54.802Z,10.00
2023-05-23T00:25:23.976Z,10.00
2023-05-23T00:27:55.257Z,10.00
2023-05-23T00:30:24.830Z,10.10
2023-05-23T00:32:56.062Z,10.10
2023-05-23T00:35:26.046Z,10.10
2023-05-23T00:37:56.489Z,10.00
2023-05-23T00:40:25.802Z,10.00
2023-05-23T00:42:55.149Z,9.80
2023-05-23T00:45:24.962Z,9.80
2023-05-23T00:47:54.016Z,9.70
2023-05-23T00:50:31.094Z,9.60
2023-05-23T00:53:03.728Z,9.50
2023-05-23T00:55:33.575Z,9.40
2023-05-23T00:58:01.268Z,9.40
2023-05-23T01:00:29.121Z,9.30
2023-05-23T01:02:56.603Z,9.20
2023-05-23T01:05:25.135Z,9.20
2023-05-23T01:07:53.003Z,9.20
2023-05-23T01:10:27.184Z,9.10
2023-05-23T01:13:19.974Z,9.10
2023-05-23T01:16:01.112Z,9.10
2023-05-23T01:18:41.526Z,9.10
2023-05-23T01:21:18.048Z,9.10
2023-05-23T01:24:05.116Z,9.20
2023-05-23T01:26:35.893Z,9.20
2023-05-23T01:29:18.047Z,9.20
2023-05-23T01:31:49.568Z,9.20
2023-05-23T01:34:18.957Z,9.20
2023-05-23T01:36:49.756Z,9.10
2023-05-23T01:39:17.294Z,9.10
2023-05-23T01:41:44.682Z,9.10
2023-05-23T01:44:12.145Z,9.00
2023-05-23T01:46:40.588Z,9.00
2023-05-23T01:56:34.583Z,9.10
2023-05-23T01:59:02.137Z,9.10
2023-05-23T02:01:30.361Z,9.10
2023-05-23T02:03:57.513Z,9.00
2023-05-23T02:06:25.327Z,9.00
2023-05-23T02:08:52.653Z,9.00
2023-05-23T02:11:20.049Z,8.90
2023-05-23T02:13:47.130Z,8.90
2023-05-23T02:16:14.533Z,8.90
2023-05-23T02:18:41.592Z,8.80
2023-05-23T02:21:08.896Z,8.80
2023-05-23T02:23:36.028Z,5.30
2023-05-23T02:26:03.475Z,8.90
2023-05-23T02:28:30.730Z,8.90
2023-05-23T02:30:58.450Z,8.90
2023-05-23T02:33:25.811Z,9.00
2023-05-23T02:35:55.393Z,8.90
2023-05-23T02:38:22.351Z,8.90
2023-05-23T02:40:51.862Z,8.90
2023-05-23T02:43:19.431Z,8.90
2023-05-23T02:45:46.918Z,8.90
2023-05-23T02:48:14.097Z,8.90
2023-05-23T02:50:42.181Z,8.80
2023-05-23T02:58:07.095Z,8.70
2023-05-23T03:12:53.384Z,9.10
2023-05-23T03:20:16.779Z,9.10
2023-05-23T03:22:45.715Z,9.20
2023-05-23T03:25:15.016Z,9.20
2023-05-23T03:27:42.163Z,9.20
2023-05-23T03:30:10.805Z,9.20
2023-05-23T03:32:37.940Z,9.30
2023-05-23T03:35:05.835Z,9.30
2023-05-23T03:37:33.071Z,9.50
2023-05-23T03:40:00.551Z,9.60
2023-05-23T03:42:28.771Z,9.80
2023-05-23T03:44:56.899Z,9.90
2023-05-23T03:47:27.241Z,9.90
2023-05-23T03:49:54.622Z,9.90
2023-05-23T03:52:21.724Z,9.90
2023-05-23T03:54:49.436Z,10.00
2023-05-23T03:57:16.543Z,10.00
2023-05-23T03:59:44.303Z,10.10
2023-05-23T04:02:11.552Z,10.10
2023-05-23T04:04:39.830Z,10.10
2023-05-23T04:07:07.272Z,10.20
2023-05-23T04:09:34.619Z,10.30
2023-05-23T04:12:01.768Z,10.40
2023-05-23T04:14:29.523Z,10.40
2023-05-23T04:16:56.670Z,10.60
2023-05-23T04:19:24.320Z,10.70
2023-05-23T04:21:51.423Z,10.70
2023-05-23T04:24:18.807Z,10.90
2023-05-23T04:26:45.932Z,10.90
2023-05-23T04:29:13.382Z,11.10
2023-05-23T04:31:40.383Z,11.30
2023-05-23T04:34:08.251Z,11.40
2023-05-23T04:36:38.160Z,11.60
2023-05-23T04:39:06.357Z,11.80
2023-05-23T04:41:33.921Z,12.10
2023-05-23T04:44:01.250Z,12.30
2023-05-23T04:46:28.469Z,12.50
2023-05-23T04:48:56.546Z,12.70
2023-05-23T04:51:23.883Z,13.00
2023-05-23T04:53:52.591Z,13.30
2023-05-23T04:56:22.823Z,13.60
2023-05-23T04:58:50.607Z,13.80
2023-05-23T05:01:17.643Z,14.10
2023-05-23T05:03:45.485Z,14.30
2023-05-23T05:06:12.484Z,14.50
2023-05-23T05:08:40.945Z,14.70
2023-05-23T05:11:09.510Z,14.90
2023-05-23T05:13:36.996Z,15.20
2023-05-23T05:16:04.181Z,15.50
2023-05-23T05:18:31.618Z,15.80
2023-05-23T05:20:58.849Z,16.00
2023-05-23T05:23:30.260Z,16.20
2023-05-23T05:25:57.738Z,16.40
2023-05-23T05:28:25.235Z,16.50
2023-05-23T05:30:55.251Z,16.70
2023-05-23T05:33:28.499Z,16.80
2023-05-23T05:35:55.928Z,17.00
2023-05-23T05:38:23.839Z,17.10
2023-05-23T05:40:51.205Z,17.30
2023-05-23T05:43:18.871Z,17.40
2023-05-23T05:45:46.297Z,17.50
2023-05-23T05:48:14.165Z,17.60
2023-05-23T05:50:45.470Z,17.60
2023-05-23T05:53:14.275Z,17.70
2023-05-23T05:55:41.315Z,17.70
2023-05-23T05:58:08.620Z,17.80
2023-05-23T06:00:42.475Z,17.90
2023-05-23T06:03:10.726Z,17.90
2023-05-23T06:05:39.494Z,18.00
2023-05-23T06:08:07.205Z,18.20
2023-05-23T06:10:34.645Z,18.30
2023-05-23T06:13:02.310Z,18.40
2023-05-23T06:15:56.804Z,18.50
2023-05-23T06:18:24.438Z,18.60
2023-05-23T06:20:51.443Z,18.70
2023-05-23T06:23:18.876Z,19.00
2023-05-23T06:25:46.186Z,19.40
2023-05-23T06:28:13.722Z,19.80
2023-05-23T06:30:41.139Z,20.20
2023-05-23T06:33:09.015Z,20.50
2023-05-23T06:35:36.109Z,20.50
2023-05-23T06:38:03.602Z,20.80
2023-05-23T06:40:31.101Z,21.30
2023-05-23T06:42:58.090Z,21.50
2023-05-23T06:45:25.909Z,21.80
2023-05-23T06:47:53.040Z,21.90
2023-05-23T06:50:20.683Z,22.00
2023-05-23T06:52:47.864Z,22.30
2023-05-23T06:55:18.426Z,23.00
2023-05-23T06:57:46.273Z,23.60
2023-05-23T07:00:14.365Z,24.10
2023-05-23T07:02:41.678Z,24.20
2023-05-23T07:05:09.667Z,24.50
2023-05-23T07:07:36.759Z,24.60
2023-05-23T07:10:04.642Z,24.60
2023-05-23T07:12:34.038Z,24.60
2023-05-23T07:15:02.670Z,25.20
2023-05-23T07:17:33.006Z,26.30
2023-05-23T07:20:00.493Z,26.40
2023-05-23T07:22:27.793Z,26.70
2023-05-23T07:24:55.133Z,26.70
2023-05-23T07:27:22.410Z,26.60
2023-05-23T07:29:51.234Z,26.70
2023-05-23T07:32:18.608Z,26.40
2023-05-23T07:34:46.374Z,26.80
2023-05-23T07:37:13.375Z,27.20
2023-05-23T07:39:43.497Z,27.20
2023-05-23T07:42:10.847Z,27.30
2023-05-23T07:44:38.433Z,27.20
2023-05-23T07:47:06.079Z,26.70
2023-05-23T07:49:34.731Z,26.70
2023-05-23T07:52:02.492Z,27.90
2023-05-23T07:54:30.566Z,28.70
2023-05-23T07:56:57.744Z,29.10
2023-05-23T07:59:25.516Z,29.70
2023-05-23T08:01:52.914Z,30.40
2023-05-23T08:04:20.737Z,30.90
2023-05-23T08:07:04.053Z,30.70
2023-05-23T08:09:33.274Z,30.40
2023-05-23T08:12:00.917Z,30.50
2023-05-23T08:14:42.708Z,30.40
2023-05-23T08:17:17.519Z,29.30
2023-05-23T08:19:45.455Z,29.10
2023-05-23T08:22:13.150Z,29.70
2023-05-23T08:24:40.668Z,29.90
2023-05-23T08:27:10.705Z,30.40
2023-05-23T08:29:38.654Z,30.10
2023-05-23T08:32:07.442Z,29.60
2023-05-23T08:34:35.399Z,29.80
2023-05-23T08:37:02.882Z,29.70
2023-05-23T08:39:30.511Z,29.90
2023-05-23T08:41:57.656Z,30.20
2023-05-23T08:44:25.076Z,30.60
2023-05-23T08:46:54.000Z,30.10
2023-05-23T08:49:23.153Z,30.10
2023-05-23T08:51:56.885Z,30.20
2023-05-23T08:54:24.981Z,30.10
2023-05-23T08:56:52.529Z,30.10
2023-05-23T08:59:21.223Z,29.90
2023-05-23T09:01:50.753Z,30.10
2023-05-23T09:04:18.320Z,30.60
2023-05-23T09:06:45.753Z,31.10
2023-05-23T09:09:13.708Z,31.60
2023-05-23T09:11:46.202Z,30.50
2023-05-23T09:14:14.797Z,32.00
2023-05-23T09:16:49.080Z,31.70
2023-05-23T09:19:18.460Z,31.50
2023-05-23T09:21:46.065Z,31.80
2023-05-23T09:24:13.852Z,31.30
2023-05-23T09:26:41.083Z,32.10
2023-05-23T09:29:08.498Z,32.80
2023-05-23T09:31:35.695Z,33.10
2023-05-23T09:34:05.106Z,32.90
2023-05-23T09:36:36.610Z,33.00
2023-05-23T09:39:08.325Z,33.40
2023-05-23T09:41:36.017Z,33.30
2023-05-23T09:44:09.582Z,33.50
2023-05-23T09:46:41.238Z,32.70
2023-05-23T09:49:18.784Z,32.50
2023-05-23T09:51:58.678Z,32.50
2023-05-23T09:54:26.321Z,31.60
2023-05-23T09:56:57.408Z,30.80
2023-05-23T09:59:31.793Z,30.30
2023-05-23T10:02:02.492Z,30.00
2023-05-23T10:04:32.909Z,30.00
2023-05-23T10:07:07.137Z,30.30
2023-05-23T10:09:38.355Z,30.80
2023-05-23T10:12:34.071Z,30.00
2023-05-23T10:15:07.633Z,30.50
2023-05-23T10:17:55.957Z,31.10
2023-05-23T10:20:26.656Z,30.00
2023-05-23T10:22:55.052Z,28.80
2023-05-23T10:25:22.893Z,28.50
2023-05-23T10:27:53.656Z,28.80
2023-05-23T10:30:21.840Z,28.60
2023-05-23T10:32:49.992Z,28.70
2023-05-23T10:35:44.532Z,28.90
2023-05-23T10:38:54.343Z,29.60
2023-05-23T10:41:31.309Z,31.50
2023-05-23T10:44:29.509Z,31.90
2023-05-23T10:47:02.303Z,32.20
2023-05-23T10:49:42.403Z,31.50
2023-05-23T10:52:39.762Z,31.00
2023-05-23T10:55:20.148Z,30.50
2023-05-23T10:58:23.290Z,30.50
2023-05-23T11:00:55.106Z,31.40
2023-05-23T11:03:34.140Z,32.20
2023-05-23T11:06:04.753Z,32.50
2023-05-23T11:11:12.518Z,33.90
2023-05-23T11:13:56.002Z,35.00
2023-05-23T11:16:40.978Z,35.70
2023-05-23T11:19:21.084Z,35.00
2023-05-23T11:21:53.683Z,34.70
2023-05-23T11:24:21.742Z,34.80
2023-05-23T11:27:00.819Z,35.10
2023-05-23T11:29:31.947Z,34.60
2023-05-23T11:31:59.377Z,34.40
2023-05-23T11:34:27.276Z,34.70
2023-05-23T11:36:57.638Z,34.70
2023-05-23T11:39:25.011Z,34.60
2023-05-23T11:42:04.595Z,34.80
2023-05-23T11:44:32.290Z,34.80
2023-05-23T11:47:04.781Z,34.60
2023-05-23T11:49:35.620Z,34.30
2023-05-23T11:52:03.181Z,33.70
2023-05-23T11:54:31.001Z,33.60
2023-05-23T11:56:58.602Z,33.40
2023-05-23T11:59:27.205Z,33.40
2023-05-23T12:01:55.128Z,33.10
2023-05-23T12:04:22.803Z,33.40
2023-05-23T12:06:51.666Z,32.80
2023-05-23T12:09:19.041Z,32.30
2023-05-23T12:11:46.346Z,32.30
2023-05-23T12:14:18.039Z,32.40
2023-05-23T12:16:46.972Z,32.40
2023-05-23T12:19:16.643Z,32.00
2023-05-23T12:21:46.232Z,31.80
2023-05-23T12:24:22.297Z,31.60
2023-05-23T12:26:55.218Z,31.60
2023-05-23T12:29:34.824Z,31.30
2023-05-23T12:32:04.244Z,31.20
2023-05-23T12:34:31.899Z,31.10
2023-05-23T12:37:18.134Z,31.30
2023-05-23T12:39:46.753Z,31.20
2023-05-23T12:42:13.917Z,31.40
2023-05-23T12:44:43.705Z,31.80
2023-05-23T12:47:10.934Z,32.40
2023-05-23T12:49:38.523Z,32.00
2023-05-23T12:52:06.124Z,31.80
2023-05-23T12:54:33.821Z,32.00
2023-05-23T12:57:01.004Z,32.50
2023-05-23T12:59:28.400Z,32.40
2023-05-23T13:01:55.627Z,31.80
2023-05-23T13:04:23.261Z,31.50
2023-05-23T13:06:50.463Z,30.80
2023-05-23T13:09:18.000Z,30.40
2023-05-23T13:11:46.825Z,30.00
2023-05-23T13:14:14.147Z,29.90
2023-05-23T13:16:42.157Z,30.00
2023-05-23T13:19:09.743Z,30.10
2023-05-23T13:21:37.221Z,29.90
2023-05-23T13:24:04.440Z,29.30
2023-05-23T13:26:31.881Z,28.50
2023-05-23T13:28:59.165Z,27.80
2023-05-23T13:31:27.367Z,27.10
2023-05-23T13:33:54.444Z,26.70
2023-05-23T13:36:22.028Z,26.60
2023-05-23T13:38:49.111Z,26.70
2023-05-23T13:41:17.296Z,27.00
2023-05-23T13:43:44.568Z,26.90
2023-05-23T13:46:14.037Z,27.20
2023-05-23T13:48:41.299Z,27.50
2023-05-23T13:51:08.738Z,27.20
2023-05-23T13:53:35.841Z,26.90
2023-05-23T13:56:03.449Z,26.60
2023-05-23T13:58:32.653Z,26.30
2023-05-23T14:01:00.629Z,26.00
2023-05-23T14:03:27.780Z,25.50
2023-05-23T14:05:55.342Z,25.10
2023-05-23T14:08:22.507Z,24.70
2023-05-23T14:10:49.908Z,24.40
2023-05-23T14:13:17.316Z,24.10
2023-05-23T14:15:45.027Z,24.00
2023-05-23T14:18:12.393Z,23.90
2023-05-23T14:20:39.837Z,23.90
2023-05-23T14:23:06.935Z,24.00
2023-05-23T14:25:34.490Z,23.90
2023-05-23T14:28:01.744Z,24.00
2023-05-23T14:30:29.188Z,24.10
2023-05-23T14:32:56.448Z,24.10
2023-05-23T14:35:25.771Z,24.10
2023-05-23T14:37:52.892Z,24.00
2023-05-23T14:40:20.179Z,24.00
2023-05-23T14:42:47.269Z,23.90
2023-05-23T14:45:17.848Z,23.80
2023-05-23T14:47:45.849Z,23.70
2023-05-23T14:50:13.453Z,23.50
2023-05-23T14:52:41.044Z,23.40
2023-05-23T14:55:09.134Z,23.30
2023-05-23T14:57:36.297Z,23.20
2023-05-23T15:00:05.800Z,23.00
2023-05-23T15:02:33.307Z,22.90
2023-05-23T15:05:01.328Z,23.70
2023-05-23T15:07:28.557Z,22.70
2023-05-23T15:09:56.212Z,22.70
2023-05-23T15:12:23.310Z,22.60
2023-05-23T15:14:51.034Z,22.50
2023-05-23T15:17:20.471Z,22.40
2023-05-23T15:19:48.465Z,22.30
2023-05-23T15:22:30.350Z,22.20
2023-05-23T15:25:04.692Z,22.20
2023-05-23T15:27:31.708Z,22.10
2023-05-23T15:29:59.395Z,22.20
2023-05-23T15:32:26.529Z,22.10
2023-05-23T15:34:54.238Z,22.10
2023-05-23T15:37:21.571Z,22.00
2023-05-23T15:39:49.416Z,22.00
2023-05-23T15:42:16.651Z,21.90
2023-05-23T15:44:44.512Z,21.80
2023-05-23T15:47:11.768Z,21.70
2023-05-23T15:49:39.521Z,21.70
2023-05-23T15:52:06.618Z,21.70
2023-05-23T15:54:34.362Z,21.60
2023-05-23T15:57:01.372Z,21.60
2023-05-23T15:59:28.911Z,21.50
2023-05-23T16:01:56.273Z,21.50
2023-05-23T16:04:24.291Z,21.40
2023-05-23T16:06:51.407Z,21.40
2023-05-23T16:09:19.089Z,21.40
2023-05-23T16:11:46.175Z,21.40
2023-05-23T16:14:14.229Z,21.40
2023-05-23T16:16:41.293Z,21.40
2023-05-23T16:19:09.890Z,21.40
2023-05-23T16:21:37.217Z,21.30
2023-05-23T16:24:05.254Z,21.30
2023-05-23T16:26:34.831Z,21.20
2023-05-23T16:29:02.732Z,21.20
2023-05-23T16:31:30.365Z,21.20
2023-05-23T16:33:58.717Z,21.20
2023-05-23T16:36:26.042Z,21.20
2023-05-23T16:38:55.627Z,21.20
2023-05-23T16:41:23.187Z,21.20
2023-05-23T16:43:51.803Z,21.20
2023-05-23T16:46:20.601Z,21.10
2023-05-23T16:48:48.992Z,21.10
2023-05-23T16:51:16.476Z,21.10
2023-05-23T16:53:44.422Z,21.00
2023-05-23T16:56:11.705Z,20.90
2023-05-23T16:58:39.808Z,20.90
2023-05-23T17:01:08.688Z,20.80
2023-05-23T17:03:36.990Z,20.80
2023-05-23T17:06:04.360Z,20.80
2023-05-23T17:08:32.571Z,20.70
2023-05-23T17:10:59.859Z,20.50
2023-05-23T17:13:28.172Z,20.50
2023-05-23T17:15:55.595Z,20.40
2023-05-23T17:18:23.391Z,20.40
2023-05-23T17:20:50.711Z,20.40
2023-05-23T17:23:19.236Z,20.20
2023-05-23T17:25:46.610Z,20.20
2023-05-23T17:28:14.549Z,20.20
2023-05-23T17:30:41.896Z,20.10
2023-05-23T17:33:11.057Z,20.00
2023-05-23T17:35:38.383Z,19.90
2023-05-23T17:38:06.367Z,19.90
2023-05-23T17:40:34.515Z,19.90
2023-05-23T17:43:03.612Z,19.90
2023-05-23T17:45:31.569Z,19.80
2023-05-23T17:48:03.562Z,19.80
2023-05-23T17:50:31.080Z,19.70
2023-05-23T17:52:59.190Z,19.80
2023-05-23T17:55:26.688Z,23.20
2023-05-23T17:57:55.012Z,19.70
2023-05-23T18:00:22.416Z,19.70
2023-05-23T18:02:51.197Z,19.70
2023-05-23T18:05:20.874Z,19.70
2023-05-23T18:07:50.455Z,19.70
2023-05-23T18:10:18.220Z,19.80
2023-05-23T18:12:46.597Z,19.80
2023-05-23T18:15:14.171Z,19.70
2023-05-23T18:17:42.501Z,19.70
2023-05-23T18:20:10.319Z,19.70
2023-05-23T18:22:38.104Z,19.60
2023-05-23T18:25:06.277Z,19.60
2023-05-23T18:27:35.177Z,19.60
2023-05-23T18:30:02.710Z,19.50
2023-05-23T18:32:31.570Z,19.50
2023-05-23T18:34:58.641Z,19.50
2023-05-23T18:37:26.531Z,19.50
2023-05-23T18:39:58.089Z,19.60
2023-05-23T18:42:26.149Z,19.60
2023-05-23T18:44:53.858Z,19.60
2023-05-23T18:47:21.576Z,19.50
2023-05-23T18:49:49.912Z,19.50
2023-05-23T18:52:17.808Z,19.40
2023-05-23T18:54:45.152Z,19.40
2023-05-23T18:57:12.874Z,16.00
2023-05-23T18:59:40.136Z,19.20
2023-05-23T19:02:07.512Z,19.20
2023-05-23T19:04:34.760Z,19.20
2023-05-23T19:07:02.559Z,19.20
2023-05-23T19:09:29.801Z,19.10
2023-05-23T19:11:57.851Z,19.10
2023-05-23T19:14:25.751Z,18.90
2023-05-23T19:16:55.176Z,18.80
2023-05-23T19:19:22.806Z,18.70
2023-05-23T19:21:52.250Z,18.60
2023-05-23T19:24:19.475Z,18.50
2023-05-23T19:26:47.468Z,18.50
2023-05-23T19:29:14.788Z,18.60
2023-05-23T19:31:42.554Z,18.60
2023-05-23T19:34:09.994Z,18.60
2023-05-23T19:36:38.069Z,18.60
2023-05-23T19:39:05.110Z,18.50
2023-05-23T19:41:33.254Z,18.40
2023-05-23T19:44:01.390Z,18.30
2023-05-23T19:46:29.454Z,18.30
2023-05-23T19:48:59.706Z,18.20
2023-05-23T19:51:29.237Z,18.20
2023-05-23T19:53:56.603Z,18.10
2023-05-23T19:56:25.929Z,18.10
2023-05-23T19:58:53.235Z,18.10
2023-05-23T20:01:22.029Z,18.00
2023-05-23T20:03:49.612Z,18.10
2023-05-23T20:06:17.025Z,18.00
2023-05-23T20:08:44.366Z,18.00
2023-05-23T20:11:12.686Z,17.90
2023-05-23T20:13:40.044Z,17.90
2023-05-23T20:16:08.448Z,17.90
2023-05-23T20:18:36.249Z,17.90
2023-05-23T20:21:05.311Z,17.90
2023-05-23T20:23:32.588Z,17.80
2023-05-23T20:26:01.194Z,17.90
2023-05-23T20:28:28.259Z,17.90
2023-05-23T20:30:55.837Z,17.90
2023-05-23T20:33:23.060Z,17.90
2023-05-23T20:35:50.728Z,17.90
2023-05-23T20:38:20.726Z,17.90
2023-05-23T20:40:50.869Z,17.90
2023-05-23T20:43:22.397Z,17.90
2023-05-23T20:45:50.489Z,17.90
2023-05-23T20:48:17.623Z,17.80
2023-05-23T20:50:45.622Z,17.80
2023-05-23T20:53:12.731Z,17.80
2023-05-23T20:55:41.017Z,17.80
2023-05-23T20:58:08.835Z,17.80
2023-05-23T21:00:36.386Z,17.70
2023-05-23T21:03:03.710Z,17.60
2023-05-23T21:05:31.114Z,17.60
2023-05-23T21:07:58.221Z,17.50
2023-05-23T21:10:25.560Z,17.50
2023-05-23T21:12:52.930Z,17.50
2023-05-23T21:15:20.629Z,17.40
2023-05-23T21:17:47.802Z,17.40
2023-05-23T21:20:16.293Z,17.30
2023-05-23T21:22:43.411Z,17.20
2023-05-23T21:25:11.094Z,16.80
2023-05-23T21:27:38.234Z,16.80
2023-05-23T21:30:06.863Z,16.60
2023-05-23T21:32:34.113Z,16.50
2023-05-23T21:35:01.803Z,16.40
2023-05-23T21:37:28.833Z,16.30
2023-05-23T21:39:56.229Z,16.30
2023-05-23T21:42:24.768Z,16.30
2023-05-23T21:44:52.833Z,16.30
2023-05-23T21:47:21.320Z,16.30
2023-05-23T21:49:48.708Z,16.30
2023-05-23T21:52:15.919Z,16.20
2023-05-23T21:54:43.622Z,16.10
2023-05-23T21:57:10.850Z,16.00
2023-05-23T21:59:38.646Z,15.80
2023-05-23T22:02:05.896Z,15.70
2023-05-23T22:04:33.604Z,15.70
2023-05-23T22:07:01.201Z,15.80
2023-05-23T22:09:29.450Z,15.90
2023-05-23T22:11:56.745Z,15.90
2023-05-23T22:14:24.425Z,15.90
2023-05-23T22:16:52.098Z,15.90
2023-05-23T22:19:20.255Z,16.00
2023-05-23T22:21:47.873Z,16.00
2023-05-23T22:24:15.245Z,15.90
2023-05-23T22:26:42.356Z,15.90
2023-05-23T22:29:09.799Z,15.90
2023-05-23T22:31:36.812Z,13.80
2023-05-23T22:34:04.578Z,16.00
2023-05-23T22:36:33.475Z,16.00
2023-05-23T22:39:02.438Z,16.10
2023-05-23T22:41:29.536Z,16.00
2023-05-23T22:43:57.399Z,16.10
2023-05-23T22:46:24.626Z,16.20
2023-05-23T22:48:52.705Z,16.20
2023-05-23T22:51:19.913Z,16.20
2023-05-23T22:53:47.783Z,16.20
2023-05-23T22:56:15.623Z,16.20
2023-05-23T22:58:43.401Z,16.10
2023-05-23T23:01:10.756Z,16.10
2023-05-23T23:03:38.550Z,16.10
2023-05-23T23:06:06.467Z,15.90
2023-05-23T23:08:34.511Z,16.00
2023-05-23T23:11:01.847Z,15.90
2023-05-23T23:13:29.760Z,15.90
2023-05-23T23:15:58.759Z,15.90
2023-05-23T23:18:27.086Z,15.90
2023-05-23T23:20:54.509Z,15.90
2023-05-23T23:23:21.941Z,15.80
2023-05-23T23:25:50.259Z,15.80
2023-05-23T23:28:17.780Z,15.70
2023-05-23T23:30:44.903Z,15.60
2023-05-23T23:33:13.200Z,15.50
2023-05-23T23:35:40.433Z,15.50
2023-05-23T23:38:07.697Z,15.50
2023-05-23T23:40:34.816Z,15.50
2023-05-23T23:43:02.166Z,15.50
2023-05-23T23:45:29.218Z,15.60
2023-05-23T23:47:56.660Z,15.60
2023-05-23T23:50:23.772Z,15.60
2023-05-23T23:52:51.466Z,15.60
2023-05-23T23:55:18.626Z,15.60
2023-05-23T23:57:46.548Z,15.60
